sensor_id;sensor_type;location;lat;lon;timestamp;P1;durP1;ratioP1;P2;durP2;ratioP2
43184;SDS011;28803;52.308;19.096;2023-03-03T00:01:49;83.80;;;31.02;;
43184;SDS011;28803;52.308;19.096;2023-03-03T00:04:16;79.97;;;28.85;;
43184;SDS011;28803;52.308;19.096;2023-03-03T00:06:44;69.28;;;25.40;;
43184;SDS011;28803;52.308;19.096;2023-03-03T00:09:11;60.50;;;23.08;;
43184;SDS011;28803;52.308;19.096;2023-03-03T00:11:38;64.60;;;24.55;;
43184;SDS011;28803;52.308;19.096;2023-03-03T00:14:15;66.95;;;24.73;;
43184;SDS011;28803;52.308;19.096;2023-03-03T00:16:47;60.30;;;22.35;;
43184;SDS011;28803;52.308;19.096;2023-03-03T00:19:17;66.03;;;24.10;;
43184;SDS011;28803;52.308;19.096;2023-03-03T00:21:47;61.03;;;23.02;;
43184;SDS011;28803;52.308;19.096;2023-03-03T00:26:54;70.65;;;23.60;;
43184;SDS011;28803;52.308;19.096;2023-03-03T00:29:33;70.27;;;24.43;;
43184;SDS011;28803;52.308;19.096;2023-03-03T00:34:41;70.82;;;24.55;;
43184;SDS011;28803;52.308;19.096;2023-03-03T00:37:31;64.25;;;23.30;;
43184;SDS011;28803;52.308;19.096;2023-03-03T00:45:47;63.55;;;23.13;;
43184;SDS011;28803;52.308;19.096;2023-03-03T00:50:48;63.53;;;24.33;;
43184;SDS011;28803;52.308;19.096;2023-03-03T00:53:18;56.22;;;22.73;;
43184;SDS011;28803;52.308;19.096;2023-03-03T00:55:47;69.60;;;21.67;;
43184;SDS011;28803;52.308;19.096;2023-03-03T00:58:16;60.35;;;21.65;;
43184;SDS011;28803;52.308;19.096;2023-03-03T01:00:53;66.50;;;22.02;;
43184;SDS011;28803;52.308;19.096;2023-03-03T01:03:23;64.65;;;21.67;;
43184;SDS011;28803;52.308;19.096;2023-03-03T01:05:51;66.25;;;23.42;;
43184;SDS011;28803;52.308;19.096;2023-03-03T01:08:19;59.38;;;23.83;;
43184;SDS011;28803;52.308;19.096;2023-03-03T01:10:48;72.18;;;23.58;;
43184;SDS011;28803;52.308;19.096;2023-03-03T01:13:18;70.53;;;25.10;;
43184;SDS011;28803;52.308;19.096;2023-03-03T01:15:47;67.90;;;26.05;;
43184;SDS011;28803;52.308;19.096;2023-03-03T01:18:15;72.45;;;26.95;;
43184;SDS011;28803;52.308;19.096;2023-03-03T01:20:42;90.22;;;29.42;;
43184;SDS011;28803;52.308;19.096;2023-03-03T01:23:10;80.40;;;27.42;;
43184;SDS011;28803;52.308;19.096;2023-03-03T01:25:37;85.40;;;29.75;;
43184;SDS011;28803;52.308;19.096;2023-03-03T01:28:05;97.47;;;28.98;;
43184;SDS011;28803;52.308;19.096;2023-03-03T01:30:32;97.63;;;29.20;;
43184;SDS011;28803;52.308;19.096;2023-03-03T01:33:00;76.03;;;28.20;;
43184;SDS011;28803;52.308;19.096;2023-03-03T01:35:27;81.18;;;27.35;;
43184;SDS011;28803;52.308;19.096;2023-03-03T01:37:55;70.65;;;22.85;;
43184;SDS011;28803;52.308;19.096;2023-03-03T01:40:25;74.40;;;23.50;;
43184;SDS011;28803;52.308;19.096;2023-03-03T01:42:54;77.13;;;23.65;;
43184;SDS011;28803;52.308;19.096;2023-03-03T01:45:28;72.13;;;23.55;;
43184;SDS011;28803;52.308;19.096;2023-03-03T01:48:09;72.70;;;23.13;;
43184;SDS011;28803;52.308;19.096;2023-03-03T01:50:50;74.60;;;23.10;;
43184;SDS011;28803;52.308;19.096;2023-03-03T01:53:42;68.47;;;22.88;;
43184;SDS011;28803;52.308;19.096;2023-03-03T01:56:13;61.13;;;21.88;;
43184;SDS011;28803;52.308;19.096;2023-03-03T01:58:41;67.53;;;21.10;;
43184;SDS011;28803;52.308;19.096;2023-03-03T02:01:16;57.97;;;20.52;;
43184;SDS011;28803;52.308;19.096;2023-03-03T02:03:48;73.47;;;22.95;;
43184;SDS011;28803;52.308;19.096;2023-03-03T02:06:17;68.50;;;21.90;;
43184;SDS011;28803;52.308;19.096;2023-03-03T02:09:05;64.63;;;20.65;;
43184;SDS011;28803;52.308;19.096;2023-03-03T02:11:35;58.50;;;20.38;;
43184;SDS011;28803;52.308;19.096;2023-03-03T02:14:04;64.43;;;21.85;;
43184;SDS011;28803;52.308;19.096;2023-03-03T02:16:31;60.45;;;20.63;;
43184;SDS011;28803;52.308;19.096;2023-03-03T02:18:59;59.58;;;20.60;;
43184;SDS011;28803;52.308;19.096;2023-03-03T02:21:27;64.47;;;19.80;;
43184;SDS011;28803;52.308;19.096;2023-03-03T02:26:40;58.20;;;19.90;;
43184;SDS011;28803;52.308;19.096;2023-03-03T02:29:08;68.72;;;21.98;;
43184;SDS011;28803;52.308;19.096;2023-03-03T02:31:36;62.97;;;20.83;;
43184;SDS011;28803;52.308;19.096;2023-03-03T02:34:04;64.85;;;21.45;;
43184;SDS011;28803;52.308;19.096;2023-03-03T02:36:33;55.92;;;20.38;;
43184;SDS011;28803;52.308;19.096;2023-03-03T02:39:10;68.93;;;22.25;;
43184;SDS011;28803;52.308;19.096;2023-03-03T02:41:45;67.45;;;20.92;;
43184;SDS011;28803;52.308;19.096;2023-03-03T02:44:26;64.40;;;20.30;;
43184;SDS011;28803;52.308;19.096;2023-03-03T02:46:54;63.40;;;20.92;;
43184;SDS011;28803;52.308;19.096;2023-03-03T02:49:24;59.30;;;19.33;;
43184;SDS011;28803;52.308;19.096;2023-03-03T02:51:53;61.20;;;19.40;;
43184;SDS011;28803;52.308;19.096;2023-03-03T02:54:22;69.35;;;19.55;;
43184;SDS011;28803;52.308;19.096;2023-03-03T02:56:51;63.08;;;20.90;;
43184;SDS011;28803;52.308;19.096;2023-03-03T02:59:18;56.38;;;19.52;;
43184;SDS011;28803;52.308;19.096;2023-03-03T03:01:45;52.92;;;19.25;;
43184;SDS011;28803;52.308;19.096;2023-03-03T03:04:17;65.60;;;19.05;;
43184;SDS011;28803;52.308;19.096;2023-03-03T03:06:47;55.20;;;20.10;;
43184;SDS011;28803;52.308;19.096;2023-03-03T03:09:14;51.65;;;21.05;;
43184;SDS011;28803;52.308;19.096;2023-03-03T03:11:42;55.05;;;19.60;;
43184;SDS011;28803;52.308;19.096;2023-03-03T03:14:10;64.53;;;20.00;;
43184;SDS011;28803;52.308;19.096;2023-03-03T03:16:39;60.67;;;21.13;;
43184;SDS011;28803;52.308;19.096;2023-03-03T03:19:06;72.95;;;19.02;;
43184;SDS011;28803;52.308;19.096;2023-03-03T03:21:34;52.83;;;19.42;;
43184;SDS011;28803;52.308;19.096;2023-03-03T03:24:02;65.90;;;21.20;;
43184;SDS011;28803;52.308;19.096;2023-03-03T03:26:29;65.25;;;19.80;;
43184;SDS011;28803;52.308;19.096;2023-03-03T03:28:56;58.47;;;21.52;;
43184;SDS011;28803;52.308;19.096;2023-03-03T03:31:23;57.38;;;20.33;;
43184;SDS011;28803;52.308;19.096;2023-03-03T03:33:51;52.13;;;16.73;;
43184;SDS011;28803;52.308;19.096;2023-03-03T03:36:18;51.13;;;19.45;;
43184;SDS011;28803;52.308;19.096;2023-03-03T03:38:46;58.47;;;19.92;;
43184;SDS011;28803;52.308;19.096;2023-03-03T03:41:13;55.30;;;18.52;;
43184;SDS011;28803;52.308;19.096;2023-03-03T03:43:40;55.97;;;19.23;;
43184;SDS011;28803;52.308;19.096;2023-03-03T03:46:07;54.42;;;18.63;;
43184;SDS011;28803;52.308;19.096;2023-03-03T03:48:35;48.10;;;17.23;;
43184;SDS011;28803;52.308;19.096;2023-03-03T03:51:02;65.60;;;20.23;;
43184;SDS011;28803;52.308;19.096;2023-03-03T03:53:30;47.17;;;17.50;;
43184;SDS011;28803;52.308;19.096;2023-03-03T03:55:57;55.63;;;16.95;;
43184;SDS011;28803;52.308;19.096;2023-03-03T03:58:24;43.38;;;18.10;;
43184;SDS011;28803;52.308;19.096;2023-03-03T04:00:51;52.92;;;19.38;;
43184;SDS011;28803;52.308;19.096;2023-03-03T04:03:19;54.70;;;18.80;;
43184;SDS011;28803;52.308;19.096;2023-03-03T04:05:46;59.75;;;17.92;;
43184;SDS011;28803;52.308;19.096;2023-03-03T04:08:14;53.10;;;17.52;;
43184;SDS011;28803;52.308;19.096;2023-03-03T04:10:41;56.00;;;17.88;;
43184;SDS011;28803;52.308;19.096;2023-03-03T04:13:09;61.75;;;19.52;;
43184;SDS011;28803;52.308;19.096;2023-03-03T04:15:36;48.08;;;17.48;;
43184;SDS011;28803;52.308;19.096;2023-03-03T04:18:03;63.55;;;18.65;;
43184;SDS011;28803;52.308;19.096;2023-03-03T04:20:30;54.70;;;17.77;;
43184;SDS011;28803;52.308;19.096;2023-03-03T04:22:58;50.80;;;17.95;;
43184;SDS011;28803;52.308;19.096;2023-03-03T04:25:25;59.10;;;19.63;;
43184;SDS011;28803;52.308;19.096;2023-03-03T04:27:53;55.45;;;16.63;;
43184;SDS011;28803;52.308;19.096;2023-03-03T04:30:20;51.30;;;16.63;;
43184;SDS011;28803;52.308;19.096;2023-03-03T04:32:47;47.63;;;17.58;;
43184;SDS011;28803;52.308;19.096;2023-03-03T04:35:15;47.15;;;16.65;;
43184;SDS011;28803;52.308;19.096;2023-03-03T04:37:42;54.22;;;17.02;;
43184;SDS011;28803;52.308;19.096;2023-03-03T04:40:09;48.80;;;16.80;;
43184;SDS011;28803;52.308;19.096;2023-03-03T04:42:37;47.03;;;17.38;;
43184;SDS011;28803;52.308;19.096;2023-03-03T04:45:04;56.83;;;17.83;;
43184;SDS011;28803;52.308;19.096;2023-03-03T04:47:32;61.72;;;17.55;;
43184;SDS011;28803;52.308;19.096;2023-03-03T04:49:59;46.58;;;17.92;;
43184;SDS011;28803;52.308;19.096;2023-03-03T04:52:27;72.88;;;20.40;;
43184;SDS011;28803;52.308;19.096;2023-03-03T04:54:54;65.20;;;18.42;;
43184;SDS011;28803;52.308;19.096;2023-03-03T04:57:22;60.20;;;16.30;;
43184;SDS011;28803;52.308;19.096;2023-03-03T04:59:49;69.18;;;20.40;;
43184;SDS011;28803;52.308;19.096;2023-03-03T05:02:17;74.97;;;20.05;;
43184;SDS011;28803;52.308;19.096;2023-03-03T05:04:44;66.25;;;19.65;;
43184;SDS011;28803;52.308;19.096;2023-03-03T05:07:12;69.68;;;19.25;;
43184;SDS011;28803;52.308;19.096;2023-03-03T05:09:39;55.10;;;17.98;;
43184;SDS011;28803;52.308;19.096;2023-03-03T05:12:06;60.13;;;17.20;;
43184;SDS011;28803;52.308;19.096;2023-03-03T05:14:33;67.75;;;21.10;;
43184;SDS011;28803;52.308;19.096;2023-03-03T05:17:01;55.97;;;17.50;;
43184;SDS011;28803;52.308;19.096;2023-03-03T05:19:29;53.92;;;19.23;;
43184;SDS011;28803;52.308;19.096;2023-03-03T05:21:57;51.50;;;19.05;;
43184;SDS011;28803;52.308;19.096;2023-03-03T05:24:24;42.92;;;15.88;;
43184;SDS011;28803;52.308;19.096;2023-03-03T05:26:51;68.65;;;18.85;;
43184;SDS011;28803;52.308;19.096;2023-03-03T05:29:18;63.03;;;17.70;;
43184;SDS011;28803;52.308;19.096;2023-03-03T05:31:46;54.75;;;15.90;;
43184;SDS011;28803;52.308;19.096;2023-03-03T05:34:13;50.88;;;15.77;;
43184;SDS011;28803;52.308;19.096;2023-03-03T05:36:40;55.90;;;16.50;;
43184;SDS011;28803;52.308;19.096;2023-03-03T05:39:07;48.13;;;18.30;;
43184;SDS011;28803;52.308;19.096;2023-03-03T05:41:35;56.80;;;15.85;;
43184;SDS011;28803;52.308;19.096;2023-03-03T05:44:02;50.33;;;17.10;;
43184;SDS011;28803;52.308;19.096;2023-03-03T05:46:29;48.55;;;16.85;;
43184;SDS011;28803;52.308;19.096;2023-03-03T05:48:57;59.58;;;17.23;;
43184;SDS011;28803;52.308;19.096;2023-03-03T05:51:24;44.08;;;14.80;;
43184;SDS011;28803;52.308;19.096;2023-03-03T05:53:51;46.40;;;15.98;;
43184;SDS011;28803;52.308;19.096;2023-03-03T05:56:22;37.05;;;14.43;;
43184;SDS011;28803;52.308;19.096;2023-03-03T05:58:49;40.58;;;14.02;;
43184;SDS011;28803;52.308;19.096;2023-03-03T06:01:17;43.55;;;15.90;;
43184;SDS011;28803;52.308;19.096;2023-03-03T06:03:44;46.20;;;14.75;;
43184;SDS011;28803;52.308;19.096;2023-03-03T06:06:11;50.33;;;16.27;;
43184;SDS011;28803;52.308;19.096;2023-03-03T06:08:39;37.65;;;14.75;;
43184;SDS011;28803;52.308;19.096;2023-03-03T06:11:07;32.83;;;14.63;;
43184;SDS011;28803;52.308;19.096;2023-03-03T06:13:34;31.70;;;11.88;;
43184;SDS011;28803;52.308;19.096;2023-03-03T06:16:02;36.33;;;11.88;;
43184;SDS011;28803;52.308;19.096;2023-03-03T06:18:29;37.15;;;13.77;;
43184;SDS011;28803;52.308;19.096;2023-03-03T06:20:56;33.88;;;14.43;;
43184;SDS011;28803;52.308;19.096;2023-03-03T06:23:23;37.53;;;13.30;;
43184;SDS011;28803;52.308;19.096;2023-03-03T06:25:51;36.10;;;13.65;;
43184;SDS011;28803;52.308;19.096;2023-03-03T06:28:18;34.58;;;11.63;;
43184;SDS011;28803;52.308;19.096;2023-03-03T06:30:46;35.28;;;10.82;;
43184;SDS011;28803;52.308;19.096;2023-03-03T06:33:13;31.13;;;11.93;;
43184;SDS011;28803;52.308;19.096;2023-03-03T06:35:40;34.10;;;11.63;;
43184;SDS011;28803;52.308;19.096;2023-03-03T06:38:07;31.35;;;14.43;;
43184;SDS011;28803;52.308;19.096;2023-03-03T06:40:35;31.45;;;11.73;;
43184;SDS011;28803;52.308;19.096;2023-03-03T06:43:02;32.13;;;13.70;;
43184;SDS011;28803;52.308;19.096;2023-03-03T06:45:30;38.92;;;14.35;;
43184;SDS011;28803;52.308;19.096;2023-03-03T06:47:57;42.17;;;12.48;;
43184;SDS011;28803;52.308;19.096;2023-03-03T06:50:24;35.20;;;12.63;;
43184;SDS011;28803;52.308;19.096;2023-03-03T06:52:54;32.30;;;12.48;;
43184;SDS011;28803;52.308;19.096;2023-03-03T06:55:31;29.88;;;13.90;;
43184;SDS011;28803;52.308;19.096;2023-03-03T06:57:59;36.20;;;12.70;;
43184;SDS011;28803;52.308;19.096;2023-03-03T07:00:27;32.03;;;11.50;;
43184;SDS011;28803;52.308;19.096;2023-03-03T07:02:57;36.47;;;12.73;;
43184;SDS011;28803;52.308;19.096;2023-03-03T07:05:28;41.10;;;13.27;;
43184;SDS011;28803;52.308;19.096;2023-03-03T07:07:55;38.45;;;13.60;;
43184;SDS011;28803;52.308;19.096;2023-03-03T07:10:24;36.25;;;12.25;;
43184;SDS011;28803;52.308;19.096;2023-03-03T07:12:53;37.58;;;13.55;;
43184;SDS011;28803;52.308;19.096;2023-03-03T07:15:27;44.80;;;15.05;;
43184;SDS011;28803;52.308;19.096;2023-03-03T07:17:59;45.13;;;15.07;;
43184;SDS011;28803;52.308;19.096;2023-03-03T07:23:04;41.22;;;15.30;;
43184;SDS011;28803;52.308;19.096;2023-03-03T07:25:51;32.83;;;12.02;;
43184;SDS011;28803;52.308;19.096;2023-03-03T07:28:23;36.78;;;12.90;;
43184;SDS011;28803;52.308;19.096;2023-03-03T07:30:53;37.92;;;13.07;;
43184;SDS011;28803;52.308;19.096;2023-03-03T07:33:35;37.47;;;12.35;;
43184;SDS011;28803;52.308;19.096;2023-03-03T07:36:29;36.05;;;12.85;;
43184;SDS011;28803;52.308;19.096;2023-03-03T07:39:00;42.10;;;13.23;;
43184;SDS011;28803;52.308;19.096;2023-03-03T07:41:37;34.95;;;11.68;;
43184;SDS011;28803;52.308;19.096;2023-03-03T07:44:16;33.53;;;12.35;;
43184;SDS011;28803;52.308;19.096;2023-03-03T07:46:47;34.28;;;11.80;;
43184;SDS011;28803;52.308;19.096;2023-03-03T07:49:23;37.72;;;12.50;;
43184;SDS011;28803;52.308;19.096;2023-03-03T07:51:54;32.65;;;12.20;;
43184;SDS011;28803;52.308;19.096;2023-03-03T07:56:58;45.47;;;14.40;;
43184;SDS011;28803;52.308;19.096;2023-03-03T07:59:37;34.75;;;12.10;;
43184;SDS011;28803;52.308;19.096;2023-03-03T08:02:27;36.70;;;13.23;;
43184;SDS011;28803;52.308;19.096;2023-03-03T08:10:46;38.05;;;13.38;;
43184;SDS011;28803;52.308;19.096;2023-03-03T08:13:49;34.38;;;14.07;;
43184;SDS011;28803;52.308;19.096;2023-03-03T08:18:44;32.00;;;12.38;;
43184;SDS011;28803;52.308;19.096;2023-03-03T08:21:18;35.10;;;12.10;;
43184;SDS011;28803;52.308;19.096;2023-03-03T08:23:50;34.38;;;12.00;;
43184;SDS011;28803;52.308;19.096;2023-03-03T08:26:20;38.72;;;12.02;;
43184;SDS011;28803;52.308;19.096;2023-03-03T08:28:48;36.35;;;12.70;;
43184;SDS011;28803;52.308;19.096;2023-03-03T08:31:15;39.47;;;12.80;;
43184;SDS011;28803;52.308;19.096;2023-03-03T08:34:03;45.53;;;14.77;;
43184;SDS011;28803;52.308;19.096;2023-03-03T08:36:30;40.92;;;14.15;;
43184;SDS011;28803;52.308;19.096;2023-03-03T08:39:00;49.00;;;14.50;;
43184;SDS011;28803;52.308;19.096;2023-03-03T08:41:29;38.80;;;13.57;;
43184;SDS011;28803;52.308;19.096;2023-03-03T08:43:56;37.88;;;12.75;;
43184;SDS011;28803;52.308;19.096;2023-03-03T08:46:23;43.72;;;14.57;;
43184;SDS011;28803;52.308;19.096;2023-03-03T08:48:51;39.38;;;14.10;;
43184;SDS011;28803;52.308;19.096;2023-03-03T08:51:18;40.33;;;14.93;;
43184;SDS011;28803;52.308;19.096;2023-03-03T08:53:46;37.28;;;13.65;;
43184;SDS011;28803;52.308;19.096;2023-03-03T08:56:13;38.10;;;12.65;;
43184;SDS011;28803;52.308;19.096;2023-03-03T08:58:40;38.50;;;13.27;;
43184;SDS011;28803;52.308;19.096;2023-03-03T09:01:27;35.22;;;12.18;;
43184;SDS011;28803;52.308;19.096;2023-03-03T09:03:54;32.42;;;12.43;;
43184;SDS011;28803;52.308;19.096;2023-03-03T09:06:21;30.98;;;12.38;;
43184;SDS011;28803;52.308;19.096;2023-03-03T09:08:49;32.83;;;12.48;;
43184;SDS011;28803;52.308;19.096;2023-03-03T09:11:18;25.02;;;11.13;;
43184;SDS011;28803;52.308;19.096;2023-03-03T09:13:50;35.97;;;12.70;;
43184;SDS011;28803;52.308;19.096;2023-03-03T09:16:30;24.80;;;11.63;;
43184;SDS011;28803;52.308;19.096;2023-03-03T09:19:14;28.73;;;9.88;;
43184;SDS011;28803;52.308;19.096;2023-03-03T09:21:52;35.80;;;14.00;;
43184;SDS011;28803;52.308;19.096;2023-03-03T09:24:25;30.13;;;10.93;;
43184;SDS011;28803;52.308;19.096;2023-03-03T09:26:57;34.00;;;10.43;;
43184;SDS011;28803;52.308;19.096;2023-03-03T09:29:26;30.38;;;12.27;;
43184;SDS011;28803;52.308;19.096;2023-03-03T09:32:05;29.23;;;12.18;;
43184;SDS011;28803;52.308;19.096;2023-03-03T09:34:48;30.15;;;10.40;;
43184;SDS011;28803;52.308;19.096;2023-03-03T09:39:58;40.03;;;11.60;;
43184;SDS011;28803;52.308;19.096;2023-03-03T09:54:11;35.50;;;12.23;;
43184;SDS011;28803;52.308;19.096;2023-03-03T10:05:26;36.25;;;12.00;;
43184;SDS011;28803;52.308;19.096;2023-03-03T10:13:35;30.77;;;11.70;;
43184;SDS011;28803;52.308;19.096;2023-03-03T10:16:16;32.50;;;10.85;;
43184;SDS011;28803;52.308;19.096;2023-03-03T10:19:26;33.22;;;12.23;;
43184;SDS011;28803;52.308;19.096;2023-03-03T10:33:38;37.53;;;10.85;;
43184;SDS011;28803;52.308;19.096;2023-03-03T10:36:33;25.35;;;9.82;;
43184;SDS011;28803;52.308;19.096;2023-03-03T10:59:27;30.25;;;10.75;;
43184;SDS011;28803;52.308;19.096;2023-03-03T11:05:06;24.60;;;8.05;;
43184;SDS011;28803;52.308;19.096;2023-03-03T11:08:00;24.75;;;9.98;;
43184;SDS011;28803;52.308;19.096;2023-03-03T11:11:05;20.95;;;8.98;;
43184;SDS011;28803;52.308;19.096;2023-03-03T11:30:38;23.80;;;8.23;;
43184;SDS011;28803;52.308;19.096;2023-03-03T11:41:28;18.77;;;7.47;;
43184;SDS011;28803;52.308;19.096;2023-03-03T11:46:49;20.90;;;8.57;;
43184;SDS011;28803;52.308;19.096;2023-03-03T11:57:42;20.70;;;9.02;;
43184;SDS011;28803;52.308;19.096;2023-03-03T12:16:43;22.88;;;10.00;;
43184;SDS011;28803;52.308;19.096;2023-03-03T12:19:24;21.55;;;9.23;;
43184;SDS011;28803;52.308;19.096;2023-03-03T12:25:04;29.13;;;10.18;;
43184;SDS011;28803;52.308;19.096;2023-03-03T12:28:07;21.88;;;8.68;;
43184;SDS011;28803;52.308;19.096;2023-03-03T12:33:35;26.27;;;9.98;;
43184;SDS011;28803;52.308;19.096;2023-03-03T12:44:23;30.25;;;11.30;;
43184;SDS011;28803;52.308;19.096;2023-03-03T13:18:04;28.05;;;11.13;;
43184;SDS011;28803;52.308;19.096;2023-03-03T13:26:24;36.78;;;11.95;;
43184;SDS011;28803;52.308;19.096;2023-03-03T13:32:11;42.80;;;14.80;;
43184;SDS011;28803;52.308;19.096;2023-03-03T13:34:50;28.35;;;11.88;;
43184;SDS011;28803;52.308;19.096;2023-03-03T13:37:44;26.13;;;10.75;;
43184;SDS011;28803;52.308;19.096;2023-03-03T13:40:16;26.75;;;11.43;;
43184;SDS011;28803;52.308;19.096;2023-03-03T13:45:30;26.02;;;11.25;;
43184;SDS011;28803;52.308;19.096;2023-03-03T13:51:03;25.05;;;10.55;;
43184;SDS011;28803;52.308;19.096;2023-03-03T13:57:09;38.40;;;12.52;;
43184;SDS011;28803;52.308;19.096;2023-03-03T13:59:49;31.08;;;10.27;;
43184;SDS011;28803;52.308;19.096;2023-03-03T14:11:10;30.95;;;11.80;;
43184;SDS011;28803;52.308;19.096;2023-03-03T14:16:51;38.30;;;13.20;;
43184;SDS011;28803;52.308;19.096;2023-03-03T14:19:31;26.98;;;10.70;;
43184;SDS011;28803;52.308;19.096;2023-03-03T14:22:25;33.38;;;12.45;;
43184;SDS011;28803;52.308;19.096;2023-03-03T14:25:14;37.55;;;12.80;;
43184;SDS011;28803;52.308;19.096;2023-03-03T14:33:30;34.88;;;13.60;;
43184;SDS011;28803;52.308;19.096;2023-03-03T14:35:39;44.72;;;16.23;;
43184;SDS011;28803;52.308;19.096;2023-03-03T14:38:18;34.38;;;13.88;;
43184;SDS011;28803;52.308;19.096;2023-03-03T14:40:49;27.63;;;11.68;;
43184;SDS011;28803;52.308;19.096;2023-03-03T14:43:36;31.17;;;11.98;;
43184;SDS011;28803;52.308;19.096;2023-03-03T14:48:57;42.92;;;13.38;;
43184;SDS011;28803;52.308;19.096;2023-03-03T14:51:46;34.40;;;12.98;;
43184;SDS011;28803;52.308;19.096;2023-03-03T14:57:39;29.83;;;11.63;;
43184;SDS011;28803;52.308;19.096;2023-03-03T14:59:57;26.92;;;10.38;;
43184;SDS011;28803;52.308;19.096;2023-03-03T15:05:26;31.60;;;11.43;;
43184;SDS011;28803;52.308;19.096;2023-03-03T15:07:56;28.75;;;11.40;;
43184;SDS011;28803;52.308;19.096;2023-03-03T15:10:36;29.27;;;11.15;;
43184;SDS011;28803;52.308;19.096;2023-03-03T15:21:28;30.63;;;12.02;;
43184;SDS011;28803;52.308;19.096;2023-03-03T15:24:04;28.27;;;11.75;;
43184;SDS011;28803;52.308;19.096;2023-03-03T15:26:51;27.85;;;11.40;;
43184;SDS011;28803;52.308;19.096;2023-03-03T15:29:36;30.70;;;10.85;;
43184;SDS011;28803;52.308;19.096;2023-03-03T15:37:46;33.05;;;11.43;;
43184;SDS011;28803;52.308;19.096;2023-03-03T15:40:26;34.63;;;11.48;;
43184;SDS011;28803;52.308;19.096;2023-03-03T15:43:24;33.10;;;12.10;;
43184;SDS011;28803;52.308;19.096;2023-03-03T15:51:25;27.35;;;11.48;;
43184;SDS011;28803;52.308;19.096;2023-03-03T15:54:08;34.47;;;13.02;;
43184;SDS011;28803;52.308;19.096;2023-03-03T15:57:04;29.27;;;12.60;;
43184;SDS011;28803;52.308;19.096;2023-03-03T16:02:56;31.58;;;12.43;;
43184;SDS011;28803;52.308;19.096;2023-03-03T16:05:30;28.17;;;10.52;;
43184;SDS011;28803;52.308;19.096;2023-03-03T16:16:35;33.30;;;12.80;;
43184;SDS011;28803;52.308;19.096;2023-03-03T16:19:19;30.33;;;11.80;;
43184;SDS011;28803;52.308;19.096;2023-03-03T16:33:41;34.63;;;13.23;;
43184;SDS011;28803;52.308;19.096;2023-03-03T16:39:41;34.15;;;14.05;;
43184;SDS011;28803;52.308;19.096;2023-03-03T16:42:26;38.28;;;13.55;;
43184;SDS011;28803;52.308;19.096;2023-03-03T16:47:46;34.53;;;11.75;;
43184;SDS011;28803;52.308;19.096;2023-03-03T16:50:45;27.00;;;12.15;;
43184;SDS011;28803;52.308;19.096;2023-03-03T16:56:22;33.75;;;12.30;;
43184;SDS011;28803;52.308;19.096;2023-03-03T17:12:37;34.10;;;12.38;;
43184;SDS011;28803;52.308;19.096;2023-03-03T17:15:26;31.92;;;12.52;;
43184;SDS011;28803;52.308;19.096;2023-03-03T17:20:57;34.90;;;14.48;;
43184;SDS011;28803;52.308;19.096;2023-03-03T17:26:32;32.90;;;12.02;;
43184;SDS011;28803;52.308;19.096;2023-03-03T17:29:23;32.72;;;12.30;;
43184;SDS011;28803;52.308;19.096;2023-03-03T17:32:20;29.85;;;13.63;;
43184;SDS011;28803;52.308;19.096;2023-03-03T17:37:43;31.73;;;12.52;;
43184;SDS011;28803;52.308;19.096;2023-03-03T17:40:42;28.48;;;11.25;;
43184;SDS011;28803;52.308;19.096;2023-03-03T17:43:20;27.13;;;11.63;;
43184;SDS011;28803;52.308;19.096;2023-03-03T17:45:58;32.75;;;13.45;;
43184;SDS011;28803;52.308;19.096;2023-03-03T17:48:56;32.88;;;12.90;;
43184;SDS011;28803;52.308;19.096;2023-03-03T17:51:37;34.35;;;12.63;;
43184;SDS011;28803;52.308;19.096;2023-03-03T18:00:30;39.53;;;12.68;;
43184;SDS011;28803;52.308;19.096;2023-03-03T18:11:48;36.25;;;14.25;;
43184;SDS011;28803;52.308;19.096;2023-03-03T18:17:18;33.88;;;14.95;;
43184;SDS011;28803;52.308;19.096;2023-03-03T18:25:57;31.33;;;12.07;;
43184;SDS011;28803;52.308;19.096;2023-03-03T18:31:25;33.35;;;12.05;;
43184;SDS011;28803;52.308;19.096;2023-03-03T18:36:54;34.22;;;13.48;;
43184;SDS011;28803;52.308;19.096;2023-03-03T18:42:39;35.70;;;13.90;;
43184;SDS011;28803;52.308;19.096;2023-03-03T18:50:37;36.55;;;14.00;;
43184;SDS011;28803;52.308;19.096;2023-03-03T18:53:17;37.92;;;12.68;;
43184;SDS011;28803;52.308;19.096;2023-03-03T18:55:51;42.15;;;14.05;;
43184;SDS011;28803;52.308;19.096;2023-03-03T18:58:28;36.58;;;14.05;;
43184;SDS011;28803;52.308;19.096;2023-03-03T19:06:28;46.70;;;14.45;;
43184;SDS011;28803;52.308;19.096;2023-03-03T19:09:03;46.45;;;16.20;;
43184;SDS011;28803;52.308;19.096;2023-03-03T19:11:36;46.08;;;17.92;;
43184;SDS011;28803;52.308;19.096;2023-03-03T19:16:53;40.92;;;12.88;;
43184;SDS011;28803;52.308;19.096;2023-03-03T19:19:22;40.00;;;13.75;;
43184;SDS011;28803;52.308;19.096;2023-03-03T19:22:18;41.08;;;13.20;;
43184;SDS011;28803;52.308;19.096;2023-03-03T19:25:01;27.98;;;12.95;;
43184;SDS011;28803;52.308;19.096;2023-03-03T19:27:34;34.20;;;11.93;;
43184;SDS011;28803;52.308;19.096;2023-03-03T19:35:58;34.47;;;12.38;;
43184;SDS011;28803;52.308;19.096;2023-03-03T19:47:20;34.25;;;13.25;;
43184;SDS011;28803;52.308;19.096;2023-03-03T19:50:21;36.75;;;13.07;;
43184;SDS011;28803;52.308;19.096;2023-03-03T20:13:29;34.88;;;12.57;;
43184;SDS011;28803;52.308;19.096;2023-03-03T20:25:33;37.33;;;12.98;;
43184;SDS011;28803;52.308;19.096;2023-03-03T20:31:10;31.52;;;12.38;;
43184;SDS011;28803;52.308;19.096;2023-03-03T20:36:27;27.48;;;11.07;;
43184;SDS011;28803;52.308;19.096;2023-03-03T20:39:21;31.73;;;12.82;;
43184;SDS011;28803;52.308;19.096;2023-03-03T20:47:28;32.17;;;13.35;;
43184;SDS011;28803;52.308;19.096;2023-03-03T20:52:59;30.48;;;14.63;;
43184;SDS011;28803;52.308;19.096;2023-03-03T20:58:47;36.55;;;15.48;;
43184;SDS011;28803;52.308;19.096;2023-03-03T21:04:16;32.03;;;14.00;;
43184;SDS011;28803;52.308;19.096;2023-03-03T21:06:51;36.45;;;13.43;;
43184;SDS011;28803;52.308;19.096;2023-03-03T21:09:26;33.00;;;13.40;;
43184;SDS011;28803;52.308;19.096;2023-03-03T21:11:54;32.45;;;13.82;;
43184;SDS011;28803;52.308;19.096;2023-03-03T21:14:23;33.83;;;13.40;;
43184;SDS011;28803;52.308;19.096;2023-03-03T21:16:53;29.25;;;13.65;;
43184;SDS011;28803;52.308;19.096;2023-03-03T21:21:54;31.40;;;14.85;;
43184;SDS011;28803;52.308;19.096;2023-03-03T21:24:22;25.23;;;11.73;;
43184;SDS011;28803;52.308;19.096;2023-03-03T21:27:22;24.63;;;11.73;;
43184;SDS011;28803;52.308;19.096;2023-03-03T21:32:42;26.13;;;10.73;;
43184;SDS011;28803;52.308;19.096;2023-03-03T21:35:15;27.13;;;11.43;;
43184;SDS011;28803;52.308;19.096;2023-03-03T21:37:51;27.45;;;12.05;;
43184;SDS011;28803;52.308;19.096;2023-03-03T21:42:56;29.08;;;10.65;;
43184;SDS011;28803;52.308;19.096;2023-03-03T21:45:25;26.17;;;10.65;;
43184;SDS011;28803;52.308;19.096;2023-03-03T21:47:52;30.60;;;10.93;;
43184;SDS011;28803;52.308;19.096;2023-03-03T21:50:21;24.65;;;11.85;;
43184;SDS011;28803;52.308;19.096;2023-03-03T21:52:48;27.95;;;10.38;;